sensor_id;sensor_type;location;lat;lon;timestamp;P1;durP1;ratioP1;P2;durP2;ratioP2
48823;SDS011;34640;53.590;10.054;2024-01-10T00:02:31;40.00;;;18.07;;
48823;SDS011;34640;53.590;10.054;2024-01-10T00:05:05;44.17;;;17.73;;
48823;SDS011;34640;53.590;10.054;2024-01-10T00:07:41;43.70;;;17.53;;
48823;SDS011;34640;53.590;10.054;2024-01-10T00:10:14;44.27;;;18.43;;
48823;SDS011;34640;53.590;10.054;2024-01-10T00:12:47;46.07;;;18.80;;
48823;SDS011;34640;53.590;10.054;2024-01-10T00:15:20;43.23;;;17.47;;
48823;SDS011;34640;53.590;10.054;2024-01-10T00:17:53;38.87;;;16.17;;
48823;SDS011;34640;53.590;10.054;2024-01-10T00:20:26;35.70;;;15.03;;
48823;SDS011;34640;53.590;10.054;2024-01-10T00:23:00;37.97;;;14.63;;
48823;SDS011;34640;53.590;10.054;2024-01-10T00:25:34;43.50;;;15.60;;
48823;SDS011;34640;53.590;10.054;2024-01-10T00:28:07;42.37;;;13.80;;
48823;SDS011;34640;53.590;10.054;2024-01-10T00:30:42;42.63;;;13.20;;
48823;SDS011;34640;53.590;10.054;2024-01-10T00:33:15;37.10;;;14.67;;
48823;SDS011;34640;53.590;10.054;2024-01-10T00:35:49;48.77;;;14.53;;
48823;SDS011;34640;53.590;10.054;2024-01-10T00:38:23;45.67;;;15.50;;
48823;SDS011;34640;53.590;10.054;2024-01-10T00:40:56;49.80;;;15.27;;
48823;SDS011;34640;53.590;10.054;2024-01-10T00:43:29;41.47;;;14.77;;
48823;SDS011;34640;53.590;10.054;2024-01-10T00:46:02;42.30;;;14.90;;
48823;SDS011;34640;53.590;10.054;2024-01-10T00:48:35;42.73;;;14.33;;
48823;SDS011;34640;53.590;10.054;2024-01-10T00:51:07;48.57;;;15.93;;
48823;SDS011;34640;53.590;10.054;2024-01-10T00:53:46;43.17;;;15.37;;
48823;SDS011;34640;53.590;10.054;2024-01-10T00:56:19;42.57;;;16.63;;
48823;SDS011;34640;53.590;10.054;2024-01-10T00:58:53;48.83;;;17.27;;
48823;SDS011;34640;53.590;10.054;2024-01-10T01:01:29;53.00;;;17.57;;
48823;SDS011;34640;53.590;10.054;2024-01-10T01:04:03;50.30;;;17.93;;
48823;SDS011;34640;53.590;10.054;2024-01-10T01:06:41;51.10;;;17.17;;
48823;SDS011;34640;53.590;10.054;2024-01-10T01:09:15;47.97;;;16.67;;
48823;SDS011;34640;53.590;10.054;2024-01-10T01:11:48;52.83;;;17.90;;
48823;SDS011;34640;53.590;10.054;2024-01-10T01:14:21;55.23;;;18.17;;
48823;SDS011;34640;53.590;10.054;2024-01-10T01:16:54;59.90;;;19.03;;
48823;SDS011;34640;53.590;10.054;2024-01-10T01:19:27;47.00;;;17.43;;
48823;SDS011;34640;53.590;10.054;2024-01-10T01:22:00;50.70;;;18.53;;
48823;SDS011;34640;53.590;10.054;2024-01-10T01:24:35;49.97;;;17.57;;
48823;SDS011;34640;53.590;10.054;2024-01-10T01:27:08;52.37;;;17.40;;
48823;SDS011;34640;53.590;10.054;2024-01-10T01:29:41;50.10;;;16.17;;
48823;SDS011;34640;53.590;10.054;2024-01-10T01:32:14;57.13;;;17.60;;
48823;SDS011;34640;53.590;10.054;2024-01-10T01:34:48;48.83;;;15.97;;
48823;SDS011;34640;53.590;10.054;2024-01-10T01:37:21;48.70;;;14.97;;
48823;SDS011;34640;53.590;10.054;2024-01-10T01:39:55;49.97;;;15.80;;
48823;SDS011;34640;53.590;10.054;2024-01-10T01:42:29;48.03;;;15.83;;
48823;SDS011;34640;53.590;10.054;2024-01-10T01:45:01;54.57;;;14.83;;
48823;SDS011;34640;53.590;10.054;2024-01-10T01:47:34;53.10;;;15.43;;
48823;SDS011;34640;53.590;10.054;2024-01-10T01:50:08;58.30;;;15.33;;
48823;SDS011;34640;53.590;10.054;2024-01-10T01:52:46;45.70;;;16.17;;
48823;SDS011;34640;53.590;10.054;2024-01-10T01:55:22;50.07;;;14.77;;
48823;SDS011;34640;53.590;10.054;2024-01-10T01:57:56;53.93;;;14.87;;
48823;SDS011;34640;53.590;10.054;2024-01-10T02:00:29;51.97;;;16.77;;
48823;SDS011;34640;53.590;10.054;2024-01-10T02:03:03;57.80;;;15.27;;
48823;SDS011;34640;53.590;10.054;2024-01-10T02:05:38;53.70;;;14.73;;
48823;SDS011;34640;53.590;10.054;2024-01-10T02:08:11;50.13;;;14.43;;
48823;SDS011;34640;53.590;10.054;2024-01-10T02:10:45;51.83;;;14.43;;
48823;SDS011;34640;53.590;10.054;2024-01-10T02:13:20;49.77;;;14.10;;
48823;SDS011;34640;53.590;10.054;2024-01-10T02:15:53;53.47;;;14.97;;
48823;SDS011;34640;53.590;10.054;2024-01-10T02:18:27;54.73;;;12.47;;
48823;SDS011;34640;53.590;10.054;2024-01-10T02:21:00;50.07;;;14.37;;
48823;SDS011;34640;53.590;10.054;2024-01-10T02:23:33;46.80;;;14.43;;
48823;SDS011;34640;53.590;10.054;2024-01-10T02:26:07;52.33;;;15.53;;
48823;SDS011;34640;53.590;10.054;2024-01-10T02:28:40;46.77;;;14.10;;
48823;SDS011;34640;53.590;10.054;2024-01-10T02:31:13;56.43;;;16.80;;
48823;SDS011;34640;53.590;10.054;2024-01-10T02:33:46;54.90;;;15.50;;
48823;SDS011;34640;53.590;10.054;2024-01-10T02:36:20;63.23;;;17.07;;
48823;SDS011;34640;53.590;10.054;2024-01-10T02:38:53;53.50;;;16.50;;
48823;SDS011;34640;53.590;10.054;2024-01-10T02:41:28;55.97;;;16.73;;
48823;SDS011;34640;53.590;10.054;2024-01-10T02:44:01;50.30;;;17.03;;
48823;SDS011;34640;53.590;10.054;2024-01-10T02:46:35;49.17;;;15.10;;
48823;SDS011;34640;53.590;10.054;2024-01-10T02:49:08;49.10;;;15.87;;
48823;SDS011;34640;53.590;10.054;2024-01-10T02:51:41;49.27;;;16.50;;
48823;SDS011;34640;53.590;10.054;2024-01-10T02:54:14;48.80;;;16.97;;
48823;SDS011;34640;53.590;10.054;2024-01-10T02:56:49;54.90;;;17.47;;
48823;SDS011;34640;53.590;10.054;2024-01-10T02:59:22;55.43;;;18.17;;
48823;SDS011;34640;53.590;10.054;2024-01-10T03:01:56;49.37;;;18.27;;
48823;SDS011;34640;53.590;10.054;2024-01-10T03:04:30;56.03;;;18.67;;
48823;SDS011;34640;53.590;10.054;2024-01-10T03:07:03;50.23;;;17.77;;
48823;SDS011;34640;53.590;10.054;2024-01-10T03:09:36;54.33;;;17.80;;
48823;SDS011;34640;53.590;10.054;2024-01-10T03:12:12;51.43;;;17.70;;
48823;SDS011;34640;53.590;10.054;2024-01-10T03:14:45;45.70;;;17.23;;
48823;SDS011;34640;53.590;10.054;2024-01-10T03:17:18;51.83;;;18.90;;
48823;SDS011;34640;53.590;10.054;2024-01-10T03:19:51;51.43;;;18.40;;
48823;SDS011;34640;53.590;10.054;2024-01-10T03:22:24;56.07;;;17.10;;
48823;SDS011;34640;53.590;10.054;2024-01-10T03:24:57;52.10;;;18.33;;
48823;SDS011;34640;53.590;10.054;2024-01-10T03:27:32;43.10;;;15.63;;
48823;SDS011;34640;53.590;10.054;2024-01-10T03:30:06;37.57;;;14.67;;
48823;SDS011;34640;53.590;10.054;2024-01-10T03:32:40;40.53;;;15.10;;
48823;SDS011;34640;53.590;10.054;2024-01-10T03:35:14;39.50;;;15.50;;
48823;SDS011;34640;53.590;10.054;2024-01-10T03:37:55;42.30;;;15.90;;
48823;SDS011;34640;53.590;10.054;2024-01-10T03:40:30;37.43;;;15.10;;
48823;SDS011;34640;53.590;10.054;2024-01-10T03:43:05;43.10;;;15.23;;
48823;SDS011;34640;53.590;10.054;2024-01-10T03:45:41;31.08;;;13.32;;
48823;SDS011;34640;53.590;10.054;2024-01-10T03:48:14;37.23;;;14.70;;
48823;SDS011;34640;53.590;10.054;2024-01-10T03:50:49;38.87;;;16.53;;
48823;SDS011;34640;53.590;10.054;2024-01-10T03:53:22;39.67;;;15.70;;
48823;SDS011;34640;53.590;10.054;2024-01-10T03:55:55;38.70;;;15.80;;
48823;SDS011;34640;53.590;10.054;2024-01-10T03:58:30;42.03;;;15.70;;
48823;SDS011;34640;53.590;10.054;2024-01-10T04:01:06;40.10;;;15.60;;
48823;SDS011;34640;53.590;10.054;2024-01-10T04:03:40;41.97;;;15.77;;
48823;SDS011;34640;53.590;10.054;2024-01-10T04:06:14;41.17;;;17.53;;
48823;SDS011;34640;53.590;10.054;2024-01-10T04:08:47;39.70;;;15.47;;
48823;SDS011;34640;53.590;10.054;2024-01-10T04:11:20;34.20;;;13.97;;
48823;SDS011;34640;53.590;10.054;2024-01-10T04:13:54;43.43;;;15.83;;
48823;SDS011;34640;53.590;10.054;2024-01-10T04:16:28;37.73;;;14.60;;
48823;SDS011;34640;53.590;10.054;2024-01-10T04:19:01;39.17;;;15.30;;
48823;SDS011;34640;53.590;10.054;2024-01-10T04:21:35;36.67;;;15.13;;
48823;SDS011;34640;53.590;10.054;2024-01-10T04:24:10;41.33;;;15.83;;
48823;SDS011;34640;53.590;10.054;2024-01-10T04:26:46;38.97;;;14.90;;
48823;SDS011;34640;53.590;10.054;2024-01-10T04:29:21;35.20;;;15.00;;
48823;SDS011;34640;53.590;10.054;2024-01-10T04:31:56;37.53;;;16.00;;
48823;SDS011;34640;53.590;10.054;2024-01-10T04:34:29;40.00;;;14.87;;
48823;SDS011;34640;53.590;10.054;2024-01-10T04:37:02;36.80;;;14.87;;
48823;SDS011;34640;53.590;10.054;2024-01-10T04:39:38;34.93;;;13.50;;
48823;SDS011;34640;53.590;10.054;2024-01-10T04:42:11;31.87;;;13.70;;
48823;SDS011;34640;53.590;10.054;2024-01-10T04:44:48;36.97;;;14.13;;
48823;SDS011;34640;53.590;10.054;2024-01-10T04:47:22;43.80;;;15.30;;
48823;SDS011;34640;53.590;10.054;2024-01-10T04:49:55;31.93;;;13.60;;
48823;SDS011;34640;53.590;10.054;2024-01-10T04:52:28;33.57;;;13.80;;
48823;SDS011;34640;53.590;10.054;2024-01-10T04:55:01;32.70;;;12.53;;
48823;SDS011;34640;53.590;10.054;2024-01-10T04:57:40;25.55;;;11.52;;
48823;SDS011;34640;53.590;10.054;2024-01-10T05:00:14;32.90;;;14.07;;
48823;SDS011;34640;53.590;10.054;2024-01-10T05:02:48;32.03;;;12.43;;
48823;SDS011;34640;53.590;10.054;2024-01-10T05:05:23;30.00;;;13.17;;
48823;SDS011;34640;53.590;10.054;2024-01-10T05:07:57;29.73;;;11.17;;
48823;SDS011;34640;53.590;10.054;2024-01-10T05:10:30;23.13;;;11.33;;
48823;SDS011;34640;53.590;10.054;2024-01-10T05:13:03;29.57;;;12.20;;
48823;SDS011;34640;53.590;10.054;2024-01-10T05:15:37;28.00;;;12.10;;
48823;SDS011;34640;53.590;10.054;2024-01-10T05:18:10;25.57;;;10.57;;
48823;SDS011;34640;53.590;10.054;2024-01-10T05:20:43;24.17;;;10.87;;
48823;SDS011;34640;53.590;10.054;2024-01-10T05:23:16;24.07;;;9.97;;
48823;SDS011;34640;53.590;10.054;2024-01-10T05:25:49;25.13;;;10.40;;
48823;SDS011;34640;53.590;10.054;2024-01-10T05:28:22;22.87;;;8.63;;
48823;SDS011;34640;53.590;10.054;2024-01-10T05:30:57;18.13;;;8.73;;
48823;SDS011;34640;53.590;10.054;2024-01-10T05:33:32;21.90;;;8.90;;
48823;SDS011;34640;53.590;10.054;2024-01-10T05:36:05;20.07;;;8.83;;
48823;SDS011;34640;53.590;10.054;2024-01-10T05:38:39;21.13;;;8.37;;
48823;SDS011;34640;53.590;10.054;2024-01-10T05:41:12;24.40;;;8.97;;
48823;SDS011;34640;53.590;10.054;2024-01-10T05:43:46;24.47;;;8.53;;
48823;SDS011;34640;53.590;10.054;2024-01-10T05:46:23;21.43;;;8.27;;
48823;SDS011;34640;53.590;10.054;2024-01-10T05:48:56;20.77;;;9.67;;
48823;SDS011;34640;53.590;10.054;2024-01-10T05:51:29;23.47;;;10.27;;
48823;SDS011;34640;53.590;10.054;2024-01-10T05:54:02;17.60;;;8.40;;
48823;SDS011;34640;53.590;10.054;2024-01-10T05:56:35;15.77;;;6.93;;
48823;SDS011;34640;53.590;10.054;2024-01-10T05:59:09;17.43;;;7.63;;
48823;SDS011;34640;53.590;10.054;2024-01-10T06:01:45;15.40;;;7.03;;
48823;SDS011;34640;53.590;10.054;2024-01-10T06:04:18;19.50;;;8.17;;
48823;SDS011;34640;53.590;10.054;2024-01-10T06:06:51;14.63;;;6.97;;
48823;SDS011;34640;53.590;10.054;2024-01-10T06:09:25;14.70;;;7.53;;
48823;SDS011;34640;53.590;10.054;2024-01-10T06:11:59;17.43;;;7.60;;
48823;SDS011;34640;53.590;10.054;2024-01-10T06:14:32;18.80;;;8.50;;
48823;SDS011;34640;53.590;10.054;2024-01-10T06:17:07;17.80;;;8.27;;
48823;SDS011;34640;53.590;10.054;2024-01-10T06:19:40;19.47;;;7.83;;
48823;SDS011;34640;53.590;10.054;2024-01-10T06:22:13;16.10;;;6.83;;
48823;SDS011;34640;53.590;10.054;2024-01-10T06:24:46;16.43;;;7.87;;
48823;SDS011;34640;53.590;10.054;2024-01-10T06:27:19;19.50;;;7.67;;
48823;SDS011;34640;53.590;10.054;2024-01-10T06:29:52;17.23;;;7.63;;
48823;SDS011;34640;53.590;10.054;2024-01-10T06:32:27;17.80;;;8.10;;
48823;SDS011;34640;53.590;10.054;2024-01-10T06:35:00;22.40;;;8.30;;
48823;SDS011;34640;53.590;10.054;2024-01-10T06:37:36;16.80;;;7.47;;
48823;SDS011;34640;53.590;10.054;2024-01-10T06:40:10;17.93;;;8.03;;
48823;SDS011;34640;53.590;10.054;2024-01-10T06:42:44;18.93;;;8.07;;
48823;SDS011;34640;53.590;10.054;2024-01-10T06:45:17;18.03;;;8.50;;
48823;SDS011;34640;53.590;10.054;2024-01-10T06:47:52;19.37;;;8.80;;
48823;SDS011;34640;53.590;10.054;2024-01-10T06:50:26;20.33;;;8.83;;
48823;SDS011;34640;53.590;10.054;2024-01-10T06:52:59;20.97;;;9.03;;
48823;SDS011;34640;53.590;10.054;2024-01-10T06:55:32;18.10;;;8.00;;
48823;SDS011;34640;53.590;10.054;2024-01-10T06:58:05;19.93;;;8.47;;
48823;SDS011;34640;53.590;10.054;2024-01-10T07:00:38;16.90;;;7.83;;
48823;SDS011;34640;53.590;10.054;2024-01-10T07:03:13;17.70;;;7.93;;
48823;SDS011;34640;53.590;10.054;2024-01-10T07:05:49;15.80;;;8.00;;
48823;SDS011;34640;53.590;10.054;2024-01-10T07:08:23;22.47;;;9.27;;
48823;SDS011;34640;53.590;10.054;2024-01-10T07:10:56;17.77;;;8.07;;
48823;SDS011;34640;53.590;10.054;2024-01-10T07:13:29;15.40;;;8.17;;
48823;SDS011;34640;53.590;10.054;2024-01-10T07:16:03;20.47;;;8.97;;
48823;SDS011;34640;53.590;10.054;2024-01-10T07:18:38;23.20;;;10.53;;
48823;SDS011;34640;53.590;10.054;2024-01-10T07:21:12;20.27;;;9.47;;
48823;SDS011;34640;53.590;10.054;2024-01-10T07:23:45;19.37;;;8.40;;
48823;SDS011;34640;53.590;10.054;2024-01-10T07:26:18;20.23;;;9.03;;
48823;SDS011;34640;53.590;10.054;2024-01-10T07:28:51;21.73;;;9.37;;
48823;SDS011;34640;53.590;10.054;2024-01-10T07:31:24;23.43;;;9.13;;
48823;SDS011;34640;53.590;10.054;2024-01-10T07:34:01;20.23;;;9.30;;
48823;SDS011;34640;53.590;10.054;2024-01-10T07:36:41;22.50;;;9.03;;
48823;SDS011;34640;53.590;10.054;2024-01-10T07:41:49;23.37;;;9.70;;
48823;SDS011;34640;53.590;10.054;2024-01-10T07:44:23;19.20;;;9.30;;
48823;SDS011;34640;53.590;10.054;2024-01-10T07:46:57;23.40;;;9.27;;
48823;SDS011;34640;53.590;10.054;2024-01-10T07:49:32;20.23;;;8.93;;
48823;SDS011;34640;53.590;10.054;2024-01-10T07:52:05;20.20;;;9.17;;
48823;SDS011;34640;53.590;10.054;2024-01-10T07:54:38;22.67;;;9.60;;
48823;SDS011;34640;53.590;10.054;2024-01-10T07:57:11;24.43;;;8.63;;
48823;SDS011;34640;53.590;10.054;2024-01-10T07:59:44;25.73;;;8.87;;
48823;SDS011;34640;53.590;10.054;2024-01-10T08:02:17;23.70;;;9.97;;
48823;SDS011;34640;53.590;10.054;2024-01-10T08:04:54;21.73;;;9.07;;
48823;SDS011;34640;53.590;10.054;2024-01-10T08:07:27;21.37;;;8.50;;
48823;SDS011;34640;53.590;10.054;2024-01-10T08:10:00;21.03;;;8.27;;
48823;SDS011;34640;53.590;10.054;2024-01-10T08:12:33;21.77;;;9.47;;
48823;SDS011;34640;53.590;10.054;2024-01-10T08:15:06;24.47;;;9.93;;
48823;SDS011;34640;53.590;10.054;2024-01-10T08:17:42;21.17;;;8.87;;
48823;SDS011;34640;53.590;10.054;2024-01-10T08:20:17;19.73;;;9.17;;
48823;SDS011;34640;53.590;10.054;2024-01-10T08:22:52;21.70;;;9.23;;
48823;SDS011;34640;53.590;10.054;2024-01-10T08:25:25;22.50;;;9.20;;
48823;SDS011;34640;53.590;10.054;2024-01-10T08:27:59;19.03;;;9.00;;
48823;SDS011;34640;53.590;10.054;2024-01-10T08:30:32;18.27;;;8.73;;
48823;SDS011;34640;53.590;10.054;2024-01-10T08:33:05;19.30;;;8.53;;
48823;SDS011;34640;53.590;10.054;2024-01-10T08:35:40;17.43;;;8.30;;
48823;SDS011;34640;53.590;10.054;2024-01-10T08:38:14;23.30;;;9.33;;
48823;SDS011;34640;53.590;10.054;2024-01-10T08:40:48;23.10;;;10.57;;
48823;SDS011;34640;53.590;10.054;2024-01-10T08:43:21;20.83;;;9.37;;
48823;SDS011;34640;53.590;10.054;2024-01-10T08:45:54;17.97;;;8.83;;
48823;SDS011;34640;53.590;10.054;2024-01-10T08:48:29;22.67;;;9.33;;
48823;SDS011;34640;53.590;10.054;2024-01-10T08:51:04;21.03;;;9.33;;
48823;SDS011;34640;53.590;10.054;2024-01-10T08:53:37;21.07;;;9.47;;
48823;SDS011;34640;53.590;10.054;2024-01-10T08:56:10;23.13;;;10.33;;
48823;SDS011;34640;53.590;10.054;2024-01-10T08:58:43;23.70;;;10.03;;
48823;SDS011;34640;53.590;10.054;2024-01-10T09:01:16;21.50;;;10.23;;
48823;SDS011;34640;53.590;10.054;2024-01-10T09:03:49;19.73;;;8.70;;
48823;SDS011;34640;53.590;10.054;2024-01-10T09:06:24;19.60;;;9.13;;
48823;SDS011;34640;53.590;10.054;2024-01-10T09:08:57;21.87;;;9.80;;
48823;SDS011;34640;53.590;10.054;2024-01-10T09:11:30;21.27;;;8.87;;
48823;SDS011;34640;53.590;10.054;2024-01-10T09:14:08;22.40;;;9.82;;
48823;SDS011;34640;53.590;10.054;2024-01-10T09:16:41;18.07;;;8.57;;
48823;SDS011;34640;53.590;10.054;2024-01-10T09:19:14;18.73;;;8.97;;
48823;SDS011;34640;53.590;10.054;2024-01-10T09:21:50;20.37;;;9.07;;
48823;SDS011;34640;53.590;10.054;2024-01-10T09:24:23;19.03;;;8.93;;
48823;SDS011;34640;53.590;10.054;2024-01-10T09:27:00;22.80;;;8.83;;
48823;SDS011;34640;53.590;10.054;2024-01-10T09:29:34;20.37;;;9.17;;
48823;SDS011;34640;53.590;10.054;2024-01-10T09:32:08;24.53;;;10.17;;
48823;SDS011;34640;53.590;10.054;2024-01-10T09:34:42;21.47;;;9.50;;
48823;SDS011;34640;53.590;10.054;2024-01-10T09:37:17;22.67;;;9.73;;
48823;SDS011;34640;53.590;10.054;2024-01-10T09:39:50;25.23;;;11.10;;
48823;SDS011;34640;53.590;10.054;2024-01-10T09:42:26;28.30;;;11.27;;
48823;SDS011;34640;53.590;10.054;2024-01-10T09:45:05;27.17;;;10.45;;
48823;SDS011;34640;53.590;10.054;2024-01-10T09:47:39;23.90;;;10.80;;
48823;SDS011;34640;53.590;10.054;2024-01-10T09:50:15;25.43;;;11.27;;
48823;SDS011;34640;53.590;10.054;2024-01-10T09:52:50;23.03;;;9.17;;
48823;SDS011;34640;53.590;10.054;2024-01-10T09:55:24;20.57;;;8.73;;
48823;SDS011;34640;53.590;10.054;2024-01-10T09:58:04;19.83;;;8.90;;
48823;SDS011;34640;53.590;10.054;2024-01-10T10:00:41;25.73;;;10.40;;
48823;SDS011;34640;53.590;10.054;2024-01-10T10:03:14;21.97;;;9.90;;
48823;SDS011;34640;53.590;10.054;2024-01-10T10:05:52;24.60;;;10.23;;
48823;SDS011;34640;53.590;10.054;2024-01-10T10:08:27;23.23;;;10.33;;
48823;SDS011;34640;53.590;10.054;2024-01-10T10:11:01;24.13;;;10.10;;
48823;SDS011;34640;53.590;10.054;2024-01-10T10:13:35;19.37;;;9.40;;
48823;SDS011;34640;53.590;10.054;2024-01-10T10:16:13;25.17;;;10.63;;
48823;SDS011;34640;53.590;10.054;2024-01-10T10:18:55;25.47;;;10.10;;
48823;SDS011;34640;53.590;10.054;2024-01-10T10:21:30;27.40;;;10.30;;
48823;SDS011;34640;53.590;10.054;2024-01-10T10:24:06;21.70;;;9.43;;
48823;SDS011;34640;53.590;10.054;2024-01-10T10:26:41;26.55;;;9.93;;
48823;SDS011;34640;53.590;10.054;2024-01-10T10:29:16;27.10;;;11.47;;
48823;SDS011;34640;53.590;10.054;2024-01-10T10:31:50;22.77;;;10.37;;
48823;SDS011;34640;53.590;10.054;2024-01-10T10:34:23;22.37;;;9.97;;
48823;SDS011;34640;53.590;10.054;2024-01-10T10:36:56;22.77;;;10.67;;
48823;SDS011;34640;53.590;10.054;2024-01-10T10:39:31;26.77;;;10.60;;
48823;SDS011;34640;53.590;10.054;2024-01-10T10:42:04;23.93;;;10.37;;
48823;SDS011;34640;53.590;10.054;2024-01-10T10:44:38;24.63;;;10.33;;
48823;SDS011;34640;53.590;10.054;2024-01-10T10:47:13;22.90;;;9.57;;
48823;SDS011;34640;53.590;10.054;2024-01-10T10:49:51;25.30;;;11.30;;
48823;SDS011;34640;53.590;10.054;2024-01-10T10:52:26;26.87;;;10.97;;
48823;SDS011;34640;53.590;10.054;2024-01-10T10:55:01;24.90;;;11.33;;
48823;SDS011;34640;53.590;10.054;2024-01-10T10:57:36;28.17;;;11.17;;
48823;SDS011;34640;53.590;10.054;2024-01-10T11:00:09;25.27;;;10.93;;
48823;SDS011;34640;53.590;10.054;2024-01-10T11:02:46;27.03;;;11.13;;
48823;SDS011;34640;53.590;10.054;2024-01-10T11:05:21;23.10;;;9.77;;
48823;SDS011;34640;53.590;10.054;2024-01-10T11:07:55;22.23;;;10.13;;
48823;SDS011;34640;53.590;10.054;2024-01-10T11:10:32;24.80;;;9.63;;
48823;SDS011;34640;53.590;10.054;2024-01-10T11:15:58;19.83;;;8.97;;
48823;SDS011;34640;53.590;10.054;2024-01-10T11:18:54;18.77;;;8.20;;
48823;SDS011;34640;53.590;10.054;2024-01-10T11:21:47;18.53;;;8.43;;
48823;SDS011;34640;53.590;10.054;2024-01-10T11:24:28;18.70;;;8.40;;
48823;SDS011;34640;53.590;10.054;2024-01-10T11:27:11;21.83;;;8.83;;
48823;SDS011;34640;53.590;10.054;2024-01-10T11:29:46;23.10;;;9.87;;
48823;SDS011;34640;53.590;10.054;2024-01-10T11:32:22;17.37;;;8.47;;
48823;SDS011;34640;53.590;10.054;2024-01-10T11:34:57;20.30;;;8.17;;
48823;SDS011;34640;53.590;10.054;2024-01-10T11:37:37;20.57;;;8.57;;
48823;SDS011;34640;53.590;10.054;2024-01-10T11:40:12;17.37;;;7.73;;
48823;SDS011;34640;53.590;10.054;2024-01-10T11:42:46;18.13;;;7.87;;
48823;SDS011;34640;53.590;10.054;2024-01-10T11:48:11;12.87;;;5.83;;
48823;SDS011;34640;53.590;10.054;2024-01-10T11:50:46;15.17;;;5.77;;
48823;SDS011;34640;53.590;10.054;2024-01-10T11:53:42;11.88;;;5.57;;
48823;SDS011;34640;53.590;10.054;2024-01-10T11:56:18;13.37;;;6.17;;
48823;SDS011;34640;53.590;10.054;2024-01-10T11:59:06;13.10;;;5.53;;
48823;SDS011;34640;53.590;10.054;2024-01-10T12:01:43;15.50;;;6.57;;
48823;SDS011;34640;53.590;10.054;2024-01-10T12:04:15;18.03;;;6.00;;
48823;SDS011;34640;53.590;10.054;2024-01-10T12:07:01;16.83;;;6.90;;
48823;SDS011;34640;53.590;10.054;2024-01-10T12:09:35;14.50;;;6.23;;
48823;SDS011;34640;53.590;10.054;2024-01-10T12:12:12;13.63;;;5.40;;
48823;SDS011;34640;53.590;10.054;2024-01-10T12:14:47;13.47;;;5.93;;
48823;SDS011;34640;53.590;10.054;2024-01-10T12:17:20;13.70;;;5.60;;
48823;SDS011;34640;53.590;10.054;2024-01-10T12:19:58;13.02;;;5.68;;
48823;SDS011;34640;53.590;10.054;2024-01-10T12:22:31;17.60;;;6.33;;
48823;SDS011;34640;53.590;10.054;2024-01-10T12:25:04;14.13;;;6.23;;
48823;SDS011;34640;53.590;10.054;2024-01-10T12:27:38;17.60;;;7.80;;
48823;SDS011;34640;53.590;10.054;2024-01-10T12:30:12;15.90;;;6.37;;
48823;SDS011;34640;53.590;10.054;2024-01-10T12:32:45;16.03;;;6.67;;
48823;SDS011;34640;53.590;10.054;2024-01-10T12:35:23;16.33;;;6.67;;
48823;SDS011;34640;53.590;10.054;2024-01-10T12:37:56;16.90;;;6.70;;
48823;SDS011;34640;53.590;10.054;2024-01-10T12:40:29;16.20;;;6.90;;
48823;SDS011;34640;53.590;10.054;2024-01-10T12:43:05;14.23;;;7.03;;
48823;SDS011;34640;53.590;10.054;2024-01-10T12:45:40;13.97;;;6.37;;
48823;SDS011;34640;53.590;10.054;2024-01-10T12:48:14;14.07;;;6.47;;
48823;SDS011;34640;53.590;10.054;2024-01-10T12:50:48;13.83;;;6.20;;
48823;SDS011;34640;53.590;10.054;2024-01-10T12:53:23;14.67;;;6.40;;
48823;SDS011;34640;53.590;10.054;2024-01-10T12:55:56;14.63;;;6.33;;
48823;SDS011;34640;53.590;10.054;2024-01-10T12:58:30;12.50;;;5.87;;
48823;SDS011;34640;53.590;10.054;2024-01-10T13:01:05;16.53;;;6.97;;
48823;SDS011;34640;53.590;10.054;2024-01-10T13:03:38;17.30;;;7.00;;
48823;SDS011;34640;53.590;10.054;2024-01-10T13:06:11;15.40;;;6.07;;
48823;SDS011;34640;53.590;10.054;2024-01-10T13:08:45;16.27;;;6.77;;
48823;SDS011;34640;53.590;10.054;2024-01-10T13:11:18;13.80;;;6.20;;
48823;SDS011;34640;53.590;10.054;2024-01-10T13:13:52;17.27;;;6.80;;
48823;SDS011;34640;53.590;10.054;2024-01-10T13:16:26;13.17;;;6.20;;
48823;SDS011;34640;53.590;10.054;2024-01-10T13:19:00;14.97;;;6.53;;
48823;SDS011;34640;53.590;10.054;2024-01-10T13:21:34;13.03;;;6.07;;
48823;SDS011;34640;53.590;10.054;2024-01-10T13:24:10;17.67;;;6.67;;
48823;SDS011;34640;53.590;10.054;2024-01-10T13:26:44;15.87;;;7.07;;
48823;SDS011;34640;53.590;10.054;2024-01-10T13:29:17;27.80;;;10.07;;
48823;SDS011;34640;53.590;10.054;2024-01-10T13:31:52;18.53;;;7.37;;
48823;SDS011;34640;53.590;10.054;2024-01-10T13:34:25;16.23;;;7.17;;
48823;SDS011;34640;53.590;10.054;2024-01-10T13:36:58;16.30;;;7.27;;
48823;SDS011;34640;53.590;10.054;2024-01-10T13:39:31;15.23;;;7.23;;
48823;SDS011;34640;53.590;10.054;2024-01-10T13:42:04;18.57;;;6.90;;
48823;SDS011;34640;53.590;10.054;2024-01-10T13:44:37;15.07;;;6.67;;
48823;SDS011;34640;53.590;10.054;2024-01-10T13:47:13;17.87;;;7.83;;
48823;SDS011;34640;53.590;10.054;2024-01-10T13:49:46;21.97;;;8.27;;
48823;SDS011;34640;53.590;10.054;2024-01-10T13:52:19;18.17;;;7.73;;
48823;SDS011;34640;53.590;10.054;2024-01-10T13:54:52;17.47;;;7.97;;
48823;SDS011;34640;53.590;10.054;2024-01-10T13:57:27;19.37;;;7.50;;
48823;SDS011;34640;53.590;10.054;2024-01-10T14:00:02;16.27;;;7.83;;
48823;SDS011;34640;53.590;10.054;2024-01-10T14:02:39;14.37;;;7.03;;
48823;SDS011;34640;53.590;10.054;2024-01-10T14:05:13;21.13;;;7.87;;
48823;SDS011;34640;53.590;10.054;2024-01-10T14:07:46;15.00;;;6.70;;
48823;SDS011;34640;53.590;10.054;2024-01-10T14:10:22;15.57;;;6.83;;
48823;SDS011;34640;53.590;10.054;2024-01-10T14:12:57;13.33;;;6.77;;
48823;SDS011;34640;53.590;10.054;2024-01-10T14:15:31;16.60;;;7.10;;
48823;SDS011;34640;53.590;10.054;2024-01-10T14:18:06;17.50;;;7.53;;
48823;SDS011;34640;53.590;10.054;2024-01-10T14:20:39;15.40;;;6.80;;
48823;SDS011;34640;53.590;10.054;2024-01-10T14:23:13;12.67;;;6.17;;
48823;SDS011;34640;53.590;10.054;2024-01-10T14:25:48;12.03;;;6.97;;
48823;SDS011;34640;53.590;10.054;2024-01-10T14:28:24;14.07;;;7.50;;
48823;SDS011;34640;53.590;10.054;2024-01-10T14:30:58;16.17;;;6.53;;
48823;SDS011;34640;53.590;10.054;2024-01-10T14:33:50;13.47;;;7.03;;
48823;SDS011;34640;53.590;10.054;2024-01-10T14:36:23;16.50;;;6.83;;
48823;SDS011;34640;53.590;10.054;2024-01-10T14:38:56;16.80;;;7.13;;
48823;SDS011;34640;53.590;10.054;2024-01-10T14:41:32;15.23;;;6.90;;
48823;SDS011;34640;53.590;10.054;2024-01-10T14:44:05;19.03;;;7.30;;
48823;SDS011;34640;53.590;10.054;2024-01-10T14:46:38;17.60;;;7.13;;
48823;SDS011;34640;53.590;10.054;2024-01-10T14:49:15;16.30;;;8.13;;
48823;SDS011;34640;53.590;10.054;2024-01-10T14:51:49;24.43;;;8.10;;
48823;SDS011;34640;53.590;10.054;2024-01-10T14:54:22;19.63;;;8.10;;
48823;SDS011;34640;53.590;10.054;2024-01-10T14:56:56;21.90;;;7.70;;
48823;SDS011;34640;53.590;10.054;2024-01-10T14:59:29;17.17;;;8.03;;
48823;SDS011;34640;53.590;10.054;2024-01-10T15:02:16;28.67;;;8.77;;
48823;SDS011;34640;53.590;10.054;2024-01-10T15:04:53;16.17;;;8.10;;
48823;SDS011;34640;53.590;10.054;2024-01-10T15:07:26;17.20;;;8.40;;